Airport Name : Resolute Bay

Other Name : Resolute Bay

ICAO : CYRB

IATA : YRB

FAA :

Latitude : 74.716944

Longitude : -94.969444

Country : Canada

Local Date and Time : 25 Jun 2024 01:32

 

TAF (Terminal Aerodrome Forecast)

TAF CYRB 250540Z 2506/2606 29008KT 1/4SM FG BKN002 OVC006 TEMPO 2506/2514 4SM -DZ BR SCT002 OVC006 FM251400 36010KT 2SM -DZ BR FEW002 BKN006 OVC010 TEMPO 2514/2606 P6SM NSW SCT005 BKN010 PROB40 2514/2606 1/2SM FG BKN002 OVC006 RMK NXT FCST BY 251200Z

 

METAR (METeorological Aerodrome Report)